createdAt,value
2017-10-15T00:01:28.809Z,97.88
2017-10-15T00:03:56.507Z,97.67
2017-10-15T00:06:24.163Z,97.50
2017-10-15T00:08:51.866Z,97.53
2017-10-15T00:11:19.519Z,97.60
2017-10-15T00:13:47.182Z,97.75
2017-10-15T00:16:14.899Z,97.69
2017-10-15T00:18:42.554Z,97.50
2017-10-15T00:21:10.238Z,97.31
2017-10-15T00:23:37.889Z,97.45
2017-10-15T00:26:05.579Z,97.76
2017-10-15T00:28:33.267Z,97.71
2017-10-15T00:31:00.964Z,97.55
2017-10-15T00:33:28.623Z,97.54
2017-10-15T00:35:56.322Z,97.29
2017-10-15T00:38:23.966Z,97.13
2017-10-15T00:40:51.654Z,96.88
2017-10-15T00:43:19.291Z,96.54
2017-10-15T00:45:46.976Z,96.42
2017-10-15T00:48:14.631Z,96.86
2017-10-15T00:50:42.307Z,97.05
2017-10-15T00:53:09.955Z,96.78
2017-10-15T00:55:37.643Z,96.49
2017-10-15T00:58:05.230Z,96.52
2017-10-15T01:00:32.892Z,96.58
2017-10-15T01:03:00.479Z,96.74
2017-10-15T01:05:28.153Z,96.98
2017-10-15T01:07:55.829Z,97.07
2017-10-15T01:10:23.533Z,97.03
2017-10-15T01:12:51.217Z,96.83
2017-10-15T01:15:18.852Z,96.61
2017-10-15T01:17:46.466Z,96.67
2017-10-15T01:20:14.130Z,96.64
2017-10-15T01:22:41.806Z,96.35
2017-10-15T01:25:09.457Z,96.22
2017-10-15T01:27:37.090Z,96.64
2017-10-15T01:30:04.774Z,97.05
2017-10-15T01:32:32.469Z,97.33
2017-10-15T01:35:00.086Z,97.48
2017-10-15T01:37:27.802Z,97.81
2017-10-15T01:39:55.476Z,98.06
2017-10-15T01:42:23.170Z,98.11
2017-10-15T01:44:50.864Z,98.19
2017-10-15T01:47:18.583Z,98.32
2017-10-15T01:49:46.253Z,98.41
2017-10-15T01:52:13.934Z,98.42
2017-10-15T01:54:41.601Z,98.44
2017-10-15T01:57:09.303Z,98.54
2017-10-15T01:59:36.888Z,98.63
2017-10-15T02:02:04.593Z,98.72
2017-10-15T02:04:32.283Z,98.75
2017-10-15T02:06:59.935Z,98.76
2017-10-15T02:09:27.618Z,98.77
2017-10-15T02:11:55.293Z,98.75
2017-10-15T02:14:22.979Z,98.73
2017-10-15T02:16:50.672Z,98.71
2017-10-15T02:19:18.347Z,98.78
2017-10-15T02:21:46.003Z,98.83
2017-10-15T02:24:13.690Z,98.85
2017-10-15T02:26:41.349Z,98.86
2017-10-15T02:29:09.041Z,99.02
2017-10-15T02:31:36.703Z,99.17
2017-10-15T02:34:04.383Z,99.25
2017-10-15T02:36:31.987Z,99.24
2017-10-15T02:38:59.617Z,99.22
2017-10-15T02:41:27.227Z,99.16
2017-10-15T02:43:54.878Z,99.14
2017-10-15T02:46:22.506Z,99.14
2017-10-15T02:48:50.160Z,99.18
2017-10-15T02:51:17.753Z,99.17
2017-10-15T02:53:45.382Z,99.12
2017-10-15T02:56:13.053Z,99.02
2017-10-15T02:58:40.696Z,98.99
2017-10-15T03:01:08.286Z,99.00
2017-10-15T03:03:35.987Z,99.01
2017-10-15T03:06:03.586Z,98.99
2017-10-15T03:08:31.178Z,99.00
2017-10-15T03:10:58.795Z,99.04
2017-10-15T03:13:26.390Z,99.07
2017-10-15T03:15:54.012Z,99.11
2017-10-15T03:18:21.615Z,99.14
2017-10-15T03:20:49.242Z,99.15
2017-10-15T03:23:16.827Z,99.18
2017-10-15T03:25:44.445Z,99.20
2017-10-15T03:28:12.051Z,99.19
2017-10-15T03:30:39.663Z,99.20
2017-10-15T03:33:07.313Z,99.17
2017-10-15T03:35:34.958Z,99.13
2017-10-15T03:38:02.560Z,99.10
2017-10-15T03:40:30.262Z,99.09
2017-10-15T03:42:57.957Z,99.08
2017-10-15T03:45:25.644Z,99.10
2017-10-15T03:47:53.290Z,99.11
2017-10-15T03:50:20.968Z,99.05
2017-10-15T03:52:48.669Z,98.98
2017-10-15T03:55:16.287Z,98.95
2017-10-15T03:57:43.967Z,98.91
2017-10-15T04:00:11.639Z,98.94
2017-10-15T04:02:39.267Z,98.96
2017-10-15T04:05:06.905Z,98.99
2017-10-15T04:07:34.605Z,98.98
2017-10-15T04:10:02.274Z,98.98
2017-10-15T04:12:29.950Z,98.95
2017-10-15T04:14:57.627Z,98.99
2017-10-15T04:17:25.272Z,99.03
2017-10-15T04:19:52.957Z,98.98
2017-10-15T04:22:20.682Z,98.88
2017-10-15T04:24:48.274Z,98.82
2017-10-15T04:27:15.981Z,98.88
2017-10-15T04:29:43.621Z,98.93
2017-10-15T04:32:11.265Z,98.92
2017-10-15T04:34:38.913Z,98.88
2017-10-15T04:37:06.561Z,98.97
2017-10-15T04:39:34.217Z,99.06
2017-10-15T04:42:01.900Z,99.17
2017-10-15T04:44:29.614Z,99.25
2017-10-15T04:46:57.268Z,99.26
2017-10-15T04:49:24.944Z,99.25
2017-10-15T04:51:52.596Z,99.29
2017-10-15T04:54:20.279Z,99.29
2017-10-15T04:56:47.938Z,99.30
2017-10-15T04:59:15.613Z,99.31
2017-10-15T05:01:43.255Z,99.34
2017-10-15T05:04:10.939Z,99.33
2017-10-15T05:06:38.614Z,99.30
2017-10-15T05:09:06.292Z,99.16
2017-10-15T05:11:33.950Z,99.06
2017-10-15T05:14:01.646Z,99.08
2017-10-15T05:16:30.298Z,99.17
2017-10-15T05:18:57.989Z,99.25
2017-10-15T05:21:25.674Z,99.34
2017-10-15T05:23:53.349Z,99.31
2017-10-15T05:26:21.014Z,99.11
2017-10-15T05:28:48.711Z,98.91
2017-10-15T05:31:16.290Z,98.74
2017-10-15T05:33:43.998Z,98.75
2017-10-15T05:36:11.669Z,98.89
2017-10-15T05:38:39.255Z,98.94
2017-10-15T05:41:06.926Z,99.05
2017-10-15T05:43:34.583Z,99.22
2017-10-15T05:46:02.202Z,99.33
2017-10-15T05:48:30.666Z,99.36
2017-10-15T05:50:58.348Z,99.37
2017-10-15T05:53:26.009Z,99.27
2017-10-15T05:55:53.665Z,99.10
2017-10-15T05:58:21.248Z,99.01
2017-10-15T06:00:48.918Z,99.03
2017-10-15T06:03:16.561Z,99.11
2017-10-15T06:05:44.259Z,99.20
2017-10-15T06:08:11.843Z,99.21
2017-10-15T06:10:39.466Z,99.31
2017-10-15T06:13:07.071Z,99.34
2017-10-15T06:15:34.690Z,99.34
2017-10-15T06:18:02.275Z,99.32
2017-10-15T06:20:29.909Z,99.14
2017-10-15T06:22:57.518Z,98.99
2017-10-15T06:25:25.140Z,98.88
2017-10-15T06:27:52.734Z,98.85
2017-10-15T06:30:20.362Z,98.87
2017-10-15T06:32:47.956Z,98.83
2017-10-15T06:35:15.549Z,99.00
2017-10-15T06:37:43.181Z,99.06
2017-10-15T06:40:10.773Z,99.10
2017-10-15T06:42:38.406Z,99.13
2017-10-15T06:45:06.001Z,99.22
2017-10-15T06:47:33.619Z,99.28
2017-10-15T06:50:01.226Z,99.30
2017-10-15T06:52:28.855Z,99.30
2017-10-15T06:54:56.454Z,99.28
2017-10-15T06:57:24.194Z,99.25
2017-10-15T06:59:51.794Z,99.25
2017-10-15T07:02:19.467Z,99.27
2017-10-15T07:04:47.122Z,99.17
2017-10-15T07:07:14.813Z,99.03
2017-10-15T07:09:42.488Z,98.94
2017-10-15T07:12:10.168Z,98.90
2017-10-15T07:14:37.826Z,98.87
2017-10-15T07:17:05.565Z,98.82
2017-10-15T07:19:33.221Z,98.72
2017-10-15T07:22:00.919Z,98.57
2017-10-15T07:24:28.519Z,98.43
2017-10-15T07:26:56.214Z,98.16
2017-10-15T07:29:23.859Z,98.07
2017-10-15T07:31:51.551Z,97.96
2017-10-15T07:34:19.197Z,97.85
2017-10-15T07:36:46.937Z,97.60
2017-10-15T07:39:14.615Z,97.36
2017-10-15T07:41:42.294Z,97.10
2017-10-15T07:44:09.983Z,96.81
2017-10-15T07:46:37.634Z,96.48
2017-10-15T07:49:05.327Z,96.25
2017-10-15T07:51:32.936Z,95.98
2017-10-15T07:54:00.636Z,95.65
2017-10-15T07:56:28.314Z,95.39
2017-10-15T07:58:56.002Z,95.22
2017-10-15T08:01:23.656Z,94.92
2017-10-15T08:03:51.334Z,94.64
2017-10-15T08:06:19.009Z,94.71
2017-10-15T08:08:46.643Z,94.50
2017-10-15T08:11:14.323Z,94.72
2017-10-15T08:13:42.007Z,94.28
2017-10-15T08:16:10.519Z,94.61
2017-10-15T08:18:38.261Z,94.33
2017-10-15T08:21:05.964Z,94.01
2017-10-15T08:23:33.651Z,93.50
2017-10-15T08:26:01.366Z,93.43
2017-10-15T08:28:28.984Z,92.67
2017-10-15T08:30:56.641Z,92.47
2017-10-15T08:33:24.330Z,92.39
2017-10-15T08:35:51.978Z,92.17
2017-10-15T08:38:19.685Z,91.75
2017-10-15T08:40:47.341Z,91.38
2017-10-15T08:43:14.938Z,91.12
2017-10-15T08:45:42.577Z,91.38
2017-10-15T08:48:10.238Z,90.85
2017-10-15T08:50:37.926Z,91.31
2017-10-15T08:53:05.576Z,90.25
2017-10-15T08:55:33.269Z,89.95
2017-10-15T08:58:00.855Z,90.74
2017-10-15T09:00:28.535Z,90.33
2017-10-15T09:02:56.118Z,89.73
2017-10-15T09:05:23.816Z,89.44
2017-10-15T09:07:51.512Z,89.83
2017-10-15T09:10:19.223Z,89.39
2017-10-15T09:12:46.880Z,88.86
2017-10-15T09:15:14.564Z,88.75
2017-10-15T09:17:42.258Z,88.30
2017-10-15T09:20:09.980Z,88.25
2017-10-15T09:22:37.639Z,88.86
2017-10-15T09:25:05.337Z,87.50
2017-10-15T09:27:40.865Z,87.28
2017-10-15T09:30:08.571Z,86.78
2017-10-15T09:32:36.291Z,86.67
2017-10-15T09:35:03.970Z,86.68
2017-10-15T09:37:31.633Z,86.86
2017-10-15T09:39:59.287Z,86.64
2017-10-15T09:42:26.943Z,86.60
2017-10-15T09:44:54.623Z,86.08
2017-10-15T09:47:22.280Z,86.18
2017-10-15T09:49:49.931Z,86.26
2017-10-15T09:52:17.635Z,86.43
2017-10-15T09:54:45.296Z,86.48
2017-10-15T09:57:13.007Z,86.16
2017-10-15T09:59:40.661Z,86.01
2017-10-15T10:02:08.344Z,86.29
2017-10-15T10:04:35.991Z,86.35
2017-10-15T10:07:03.677Z,86.64
2017-10-15T10:09:31.331Z,86.26
2017-10-15T10:11:59.019Z,85.77
2017-10-15T10:14:26.694Z,85.30
2017-10-15T10:16:54.414Z,85.43
2017-10-15T10:19:22.055Z,85.48
2017-10-15T10:21:49.768Z,85.51
2017-10-15T10:24:17.426Z,85.32
2017-10-15T10:26:45.102Z,85.15
2017-10-15T10:29:12.797Z,85.20
2017-10-15T10:31:40.566Z,84.88
2017-10-15T10:34:08.253Z,84.16
2017-10-15T10:36:35.941Z,83.17
2017-10-15T10:39:03.613Z,82.99
2017-10-15T10:41:31.217Z,82.38
2017-10-15T10:43:58.910Z,82.76
2017-10-15T10:46:26.564Z,82.03
2017-10-15T10:48:54.261Z,80.87
2017-10-15T10:51:21.938Z,80.69
2017-10-15T10:53:49.663Z,80.47
2017-10-15T10:56:17.345Z,80.45
2017-10-15T10:58:45.050Z,81.23
2017-10-15T11:01:12.707Z,80.61
2017-10-15T11:03:40.406Z,80.87
2017-10-15T11:06:08.088Z,81.00
2017-10-15T11:08:35.771Z,80.19
2017-10-15T11:11:03.448Z,80.90
2017-10-15T11:13:32.007Z,80.52
2017-10-15T11:16:00.528Z,80.51
2017-10-15T11:18:28.232Z,80.62
2017-10-15T11:20:55.917Z,80.62
2017-10-15T11:23:23.624Z,80.45
2017-10-15T11:25:51.302Z,79.78
2017-10-15T11:28:18.937Z,80.32
2017-10-15T11:30:46.594Z,80.69
2017-10-15T11:33:14.280Z,80.58
2017-10-15T11:35:41.957Z,80.10
2017-10-15T11:38:09.643Z,79.90
2017-10-15T11:40:37.295Z,80.50
2017-10-15T11:43:04.949Z,80.17
2017-10-15T11:45:32.643Z,80.21
2017-10-15T11:48:00.308Z,79.96
2017-10-15T11:50:27.993Z,79.67
2017-10-15T11:52:55.679Z,79.60
2017-10-15T11:55:23.397Z,79.38
2017-10-15T11:57:51.071Z,79.30
2017-10-15T12:00:18.773Z,79.15
2017-10-15T12:02:46.436Z,77.74
2017-10-15T12:05:14.125Z,77.80
2017-10-15T12:07:41.803Z,78.11
2017-10-15T12:10:09.489Z,78.10
2017-10-15T12:12:37.166Z,78.01
2017-10-15T12:15:04.873Z,77.81
2017-10-15T12:17:33.402Z,77.31
2017-10-15T12:20:01.085Z,77.77
2017-10-15T12:22:28.744Z,77.71
2017-10-15T12:24:56.372Z,77.77
2017-10-15T12:27:24.053Z,77.01
2017-10-15T12:29:51.743Z,76.73
2017-10-15T12:32:19.429Z,76.69
2017-10-15T12:34:47.145Z,75.99
2017-10-15T12:37:14.838Z,75.71
2017-10-15T12:39:42.538Z,75.27
2017-10-15T12:42:10.660Z,75.65
2017-10-15T12:44:38.318Z,76.05
2017-10-15T12:47:06.025Z,75.93
2017-10-15T12:49:33.683Z,76.17
2017-10-15T12:52:01.540Z,75.49
2017-10-15T12:54:29.214Z,75.49
2017-10-15T12:56:57.218Z,75.72
2017-10-15T12:59:24.877Z,75.52
2017-10-15T13:01:52.572Z,75.23
2017-10-15T13:04:20.238Z,75.12
2017-10-15T13:06:47.928Z,75.74
2017-10-15T13:09:15.578Z,75.27
2017-10-15T13:11:43.266Z,74.79
2017-10-15T13:14:10.929Z,73.75
2017-10-15T13:16:38.684Z,73.36
2017-10-15T13:19:06.364Z,72.69
2017-10-15T13:21:34.065Z,73.12
2017-10-15T13:24:01.751Z,72.99
2017-10-15T13:26:29.427Z,73.47
2017-10-15T13:28:57.108Z,73.39
2017-10-15T13:31:24.786Z,73.92
2017-10-15T13:33:52.442Z,73.50
2017-10-15T13:36:20.187Z,72.60
2017-10-15T13:38:47.853Z,72.83
2017-10-15T13:41:15.515Z,73.41
2017-10-15T13:43:43.196Z,73.56
2017-10-15T13:46:10.858Z,73.32
2017-10-15T13:48:38.536Z,73.43
2017-10-15T13:51:06.195Z,73.37
2017-10-15T13:53:33.884Z,73.43
2017-10-15T13:56:01.557Z,73.44
2017-10-15T13:58:29.272Z,73.62
2017-10-15T14:00:56.970Z,73.56
2017-10-15T14:03:24.641Z,73.58
2017-10-15T14:05:52.320Z,73.14
2017-10-15T14:08:20.037Z,73.73
2017-10-15T14:10:47.693Z,73.75
2017-10-15T14:13:15.304Z,73.27
2017-10-15T14:15:43.980Z,73.55
2017-10-15T14:18:11.701Z,73.71
2017-10-15T14:20:39.361Z,74.33
2017-10-15T14:23:07.060Z,73.97
2017-10-15T14:25:34.726Z,74.19
2017-10-15T14:28:02.449Z,74.37
2017-10-15T14:30:30.142Z,74.18
2017-10-15T14:32:57.823Z,74.68
2017-10-15T14:35:25.505Z,74.55
2017-10-15T14:37:53.211Z,74.72
2017-10-15T14:40:20.870Z,74.45
2017-10-15T14:42:48.455Z,74.55
2017-10-15T14:45:16.154Z,74.15
2017-10-15T14:47:43.802Z,74.78
2017-10-15T14:50:11.522Z,75.05
2017-10-15T14:52:39.250Z,75.27
2017-10-15T14:55:07.219Z,75.45
2017-10-15T14:57:34.891Z,75.77
2017-10-15T15:00:02.567Z,76.24
2017-10-15T15:02:30.265Z,76.49
2017-10-15T15:04:57.963Z,76.37
2017-10-15T15:07:25.668Z,76.74
2017-10-15T15:09:53.360Z,77.13
2017-10-15T15:12:21.071Z,77.14
2017-10-15T15:14:48.815Z,77.37
2017-10-15T15:17:17.323Z,77.74
2017-10-15T15:19:45.019Z,77.82
2017-10-15T15:22:12.706Z,78.03
2017-10-15T15:24:40.672Z,78.22
2017-10-15T15:27:08.366Z,78.77
2017-10-15T15:29:35.959Z,78.84
2017-10-15T15:32:03.662Z,79.28
2017-10-15T15:34:31.335Z,79.65
2017-10-15T15:36:59.022Z,80.08
2017-10-15T15:39:26.679Z,80.07
2017-10-15T15:41:54.385Z,80.38
2017-10-15T15:44:22.040Z,80.64
2017-10-15T15:46:49.741Z,80.87
2017-10-15T15:49:17.423Z,81.20
2017-10-15T15:51:45.182Z,81.64
2017-10-15T15:54:12.862Z,82.39
2017-10-15T15:56:40.601Z,82.77
2017-10-15T15:59:08.269Z,83.25
2017-10-15T16:01:35.943Z,83.54
2017-10-15T16:04:03.591Z,84.01
2017-10-15T16:06:31.278Z,84.61
2017-10-15T16:08:58.935Z,84.95
2017-10-15T16:11:26.628Z,85.37
2017-10-15T16:13:54.330Z,85.77
2017-10-15T16:16:23.034Z,86.33
2017-10-15T16:18:50.636Z,86.78
2017-10-15T16:21:18.330Z,87.42
2017-10-15T16:23:45.973Z,87.74
2017-10-15T16:26:13.644Z,88.20
2017-10-15T16:28:41.324Z,88.67
2017-10-15T16:31:08.967Z,89.16
2017-10-15T16:33:36.686Z,89.57
2017-10-15T16:36:04.350Z,89.81
2017-10-15T16:38:32.095Z,90.38
2017-10-15T16:40:59.758Z,90.35
2017-10-15T16:43:27.433Z,90.60
2017-10-15T16:45:55.082Z,91.58
2017-10-15T16:48:22.778Z,92.30
2017-10-15T16:50:50.437Z,92.86
2017-10-15T16:53:18.126Z,93.41
2017-10-15T16:55:45.775Z,93.56
2017-10-15T16:58:13.474Z,93.62
2017-10-15T17:00:41.106Z,93.84
2017-10-15T17:03:08.824Z,93.86
2017-10-15T17:05:36.481Z,93.99
2017-10-15T17:08:04.202Z,94.03
2017-10-15T17:10:31.866Z,93.85
2017-10-15T17:12:59.543Z,93.50
2017-10-15T17:15:27.221Z,93.37
2017-10-15T17:17:55.007Z,93.35
2017-10-15T17:20:22.587Z,93.53
2017-10-15T17:22:50.209Z,94.64
2017-10-15T17:25:17.888Z,95.35
2017-10-15T17:27:45.564Z,95.50
2017-10-15T17:30:13.254Z,95.49
2017-10-15T17:32:40.905Z,95.90
2017-10-15T17:35:08.627Z,96.22
2017-10-15T17:37:36.323Z,96.45
2017-10-15T17:40:04.010Z,96.64
2017-10-15T17:42:31.681Z,96.67
2017-10-15T17:44:59.399Z,96.62
2017-10-15T17:47:27.049Z,96.62
2017-10-15T17:49:59.619Z,96.61
2017-10-15T17:52:27.276Z,96.67
2017-10-15T17:54:54.973Z,96.71
2017-10-15T17:57:22.634Z,96.75
2017-10-15T17:59:50.376Z,96.64
2017-10-15T18:02:26.822Z,96.77
2017-10-15T18:04:54.522Z,96.56
2017-10-15T18:07:22.130Z,96.55
2017-10-15T18:09:49.803Z,96.72
2017-10-15T18:12:17.461Z,96.83
2017-10-15T18:14:45.147Z,96.81
2017-10-15T18:17:13.910Z,96.93
2017-10-15T18:19:41.612Z,97.12
2017-10-15T18:22:09.272Z,97.33
2017-10-15T18:24:36.973Z,97.43
2017-10-15T18:27:04.622Z,97.44
2017-10-15T18:29:32.278Z,97.40
2017-10-15T18:31:59.976Z,97.32
2017-10-15T18:34:27.634Z,97.28
2017-10-15T18:36:55.261Z,97.25
2017-10-15T18:39:22.931Z,97.21
2017-10-15T18:41:50.650Z,97.34
2017-10-15T18:44:18.294Z,97.48
2017-10-15T18:46:46.004Z,97.50
2017-10-15T18:49:13.681Z,97.32
2017-10-15T18:51:41.377Z,97.41
2017-10-15T18:54:09.077Z,97.57
2017-10-15T18:56:36.797Z,97.68
2017-10-15T18:59:04.460Z,97.71
2017-10-15T19:01:32.079Z,97.60
2017-10-15T19:03:59.742Z,97.58
2017-10-15T19:06:27.344Z,97.66
2017-10-15T19:08:55.051Z,97.82
2017-10-15T19:11:22.728Z,97.91
2017-10-15T19:13:50.358Z,98.00
2017-10-15T19:16:17.977Z,98.09
2017-10-15T19:18:45.679Z,98.14
2017-10-15T19:21:13.305Z,98.23
2017-10-15T19:23:40.925Z,98.28
2017-10-15T19:26:08.514Z,98.37
2017-10-15T19:28:36.146Z,98.43
2017-10-15T19:31:03.740Z,98.50
2017-10-15T19:33:31.354Z,98.53
2017-10-15T19:35:58.951Z,98.50
2017-10-15T19:38:27.531Z,98.30
2017-10-15T19:40:55.172Z,97.99
2017-10-15T19:43:22.831Z,97.74
2017-10-15T19:45:50.474Z,97.80
2017-10-15T19:48:18.068Z,97.69
2017-10-15T19:50:45.684Z,97.30
2017-10-15T19:53:13.270Z,97.05
2017-10-15T19:55:40.952Z,97.50
2017-10-15T19:58:08.541Z,97.84
2017-10-15T20:00:36.195Z,98.06
2017-10-15T20:03:03.838Z,98.22
2017-10-15T20:05:31.555Z,98.32
2017-10-15T20:07:59.218Z,98.34
2017-10-15T20:10:26.847Z,98.36
2017-10-15T20:12:54.561Z,98.36
2017-10-15T20:15:22.235Z,98.16
2017-10-15T20:17:49.915Z,97.70
2017-10-15T20:20:17.540Z,97.33
2017-10-15T20:22:45.136Z,97.14
2017-10-15T20:25:12.821Z,97.09
2017-10-15T20:27:40.468Z,97.10
2017-10-15T20:30:08.122Z,97.09
2017-10-15T20:32:35.780Z,97.13
2017-10-15T20:35:03.445Z,97.20
2017-10-15T20:37:31.131Z,97.32
2017-10-15T20:39:58.774Z,97.42
2017-10-15T20:42:26.402Z,97.47
2017-10-15T20:44:54.050Z,97.52
2017-10-15T20:47:21.756Z,97.63
2017-10-15T20:49:50.233Z,97.59
2017-10-15T20:52:17.914Z,97.34
2017-10-15T20:54:45.491Z,97.21
2017-10-15T20:57:13.113Z,97.14
2017-10-15T20:59:40.751Z,97.08
2017-10-15T21:02:08.464Z,97.12
2017-10-15T21:04:36.120Z,97.12
2017-10-15T21:07:03.812Z,97.07
2017-10-15T21:09:31.461Z,97.01
2017-10-15T21:11:59.158Z,96.94
2017-10-15T21:14:26.827Z,97.14
2017-10-15T21:16:54.458Z,97.29
2017-10-15T21:19:22.115Z,97.16
2017-10-15T21:21:49.740Z,97.05
2017-10-15T21:24:17.396Z,97.04
2017-10-15T21:26:45.084Z,97.08
2017-10-15T21:29:12.753Z,97.44
2017-10-15T21:31:40.407Z,97.70
2017-10-15T21:34:08.098Z,97.98
2017-10-15T21:36:35.704Z,98.03
2017-10-15T21:39:03.412Z,97.88
2017-10-15T21:41:31.058Z,97.75
2017-10-15T21:43:58.761Z,97.68
2017-10-15T21:46:26.408Z,97.46
2017-10-15T21:48:54.076Z,97.04
2017-10-15T21:51:21.723Z,96.75
2017-10-15T21:53:49.409Z,96.88
2017-10-15T21:56:17.058Z,97.57
2017-10-15T21:58:44.757Z,98.07
2017-10-15T22:01:12.350Z,98.41
2017-10-15T22:03:39.967Z,98.40
2017-10-15T22:06:07.600Z,98.01
2017-10-15T22:08:35.236Z,97.64
2017-10-15T22:11:02.821Z,97.38
2017-10-15T22:13:30.495Z,97.47
2017-10-15T22:15:58.176Z,97.43
2017-10-15T22:18:31.432Z,97.29
2017-10-15T22:21:04.642Z,97.09
2017-10-15T22:23:32.326Z,96.85
2017-10-15T22:25:59.982Z,97.19
2017-10-15T22:28:27.670Z,97.80
2017-10-15T22:30:55.350Z,98.33
2017-10-15T22:33:23.006Z,98.65
2017-10-15T22:35:50.694Z,98.88
2017-10-15T22:38:18.351Z,98.83
2017-10-15T22:40:45.966Z,98.61
2017-10-15T22:43:13.614Z,98.67
2017-10-15T22:45:41.286Z,98.85
2017-10-15T22:48:08.945Z,98.95
2017-10-15T22:50:36.607Z,98.70
2017-10-15T22:53:04.209Z,98.19
2017-10-15T22:55:31.870Z,97.85
2017-10-15T22:57:59.512Z,97.57
2017-10-15T23:00:27.194Z,97.41
2017-10-15T23:02:54.775Z,97.71
2017-10-15T23:05:22.468Z,98.04
2017-10-15T23:07:50.110Z,98.32
2017-10-15T23:10:17.758Z,98.71
2017-10-15T23:12:45.431Z,99.00
2017-10-15T23:15:13.071Z,98.86
2017-10-15T23:17:41.636Z,98.41
2017-10-15T23:20:09.276Z,97.94
2017-10-15T23:22:36.944Z,97.63
2017-10-15T23:25:04.586Z,97.86
2017-10-15T23:27:32.259Z,97.83
2017-10-15T23:29:59.918Z,97.66
2017-10-15T23:32:27.583Z,97.78
2017-10-15T23:34:55.225Z,98.13
2017-10-15T23:37:22.915Z,98.30
2017-10-15T23:39:50.553Z,98.47
2017-10-15T23:42:18.263Z,98.61
2017-10-15T23:44:45.918Z,98.77
2017-10-15T23:47:13.519Z,98.97
2017-10-15T23:49:41.090Z,99.09
2017-10-15T23:52:08.703Z,99.14
2017-10-15T23:54:36.359Z,99.19
2017-10-15T23:57:04.068Z,99.13
2017-10-15T23:59:31.699Z,99.01
